Accueil
METAR-TAF:

METAR-TAF

Aéroports :

Aéroport de Reus

Reus, Espagne

latitude: 41-09N, longitude: 001-10E, altitude: 71 m

Observation

Le bulletin a été fait il y a 15 minutes, à 19:00 UTC
Vent 2 kt de direction variable
Température 26°C
Humidité 51%
Pression 1018 hPa
Visibilité 10 km ou plus
pas de nuages en-dessous de 1500 mètres et pas de cumulonimbus.

METAR: LERS 201900Z VRB02KT CAVOK 26/15 Q1018

Heure: 21:15 (19:15 UTC)

Prévision

Le bulletin a été fait il y a 5 heures et 15 minutes, à 14:00 UTC
Prévision valable du 20 à 15 UTC au 21 à 15 UTC
Vent 7 kt de sud
Visibilité 10 km ou plus
Quelques nuages à une hauteur de 3000 ft
Evoluant progressivement
du 20 à 19 UTC au 20 à 21 UTC
Vent 3 kt de direction variable
Evoluant progressivement
du 21 à 08 UTC au 21 à 10 UTC
Vent 7 kt de sud

TAF: LERS 201400Z 2015/2115 18007KT 9999 FEW030 TX32/2112Z TN20/2105Z BECMG 2019/2021 VRB03KT BECMG 2108/2110 19007KT

Observations et prévisions météorologiques de plus de 4000 aéroports (messages METAR et TAF).

Les stations disponibles sont représentées par des disques jaunes et rouges sur la carte.

Passer la souris dessus pour voir le nom de la station.

Cliquer dessus pour voir les observations et prévisions météorologiques.

Pour changer de carte: cliquez sur les boutons verts avec une croix noire pour zoomer, sur le bouton vert avec un tiret pour effectuer un zoom arrière, ou sur les flèches vertes pour les cartes adjacentes.


METAR-TAF: